Arbor Vitae, Wisconsin
Current Conditions -  °F | °C
As of 6:15 PM on Friday 28 Nov 2014 (Local Time) from KARV Reporting Station
Overcast Overcast  
Wind Chill: 10°   Ceiling: 9000
Heat Index: 17°   Visibility: 10mi
Dew Point: 14°   Wind: 5mph
Humidity: 88%   Direction: 130°SE
Pressure: 29.85"   Gusts: NA
Location:  45.9553°N, 89.6779°W
Report Text: KARV 290015Z AUTO 13004KT 10SM SCT009 SCT038 OVC090 M08/M10 A2985 RMK AO2 T10851102
Loading
Personal Weather Stations






























Interactive Weather Map New forecast layout! Learn more

10-Day Weather Forecast

Advertisements
Track Severe Weather on mobile